Amagon, Arkansas
Current Conditions -  °F | °C
As of 5:56 PM on Thursday 27 Nov 2014 (Local Time) from KM19 Reporting Station
Haze Haze  
Wind Chill: 33°   Ceiling: Unl
Heat Index: 38°   Visibility: 3mi
Dew Point: 32°   Wind: 7mph
Humidity: 79%   Direction: 140°SE
Pressure: 30.48"   Gusts: NA
Location:  35.56°N, 91.11°W
Report Text: KM19 272356Z AUTO 14006KT 3SM HZ CLR 03/00 A3048 RMK AO2 58003 60000 T00330000 10088 20033 RAB2257E44 P0000 SLP322
Loading
Personal Weather Stations






























Interactive Weather Map New forecast layout! Learn more

10-Day Weather Forecast

Advertisements
Track Severe Weather on mobile